createdAt,value
2022-11-06T00:00:39.615Z,4.93
2022-11-06T00:06:00.871Z,4.83
2022-11-06T00:11:09.190Z,4.86
2022-11-06T00:16:15.465Z,4.81
2022-11-06T00:21:20.328Z,4.74
2022-11-06T00:26:24.111Z,4.67
2022-11-06T00:31:29.501Z,4.58
2022-11-06T00:36:31.129Z,4.52
2022-11-06T00:41:32.593Z,4.47
2022-11-06T00:46:34.064Z,4.48
2022-11-06T00:51:39.494Z,4.51
2022-11-06T00:56:41.485Z,4.53
2022-11-06T01:01:45.351Z,4.54
2022-11-06T01:06:49.585Z,4.44
2022-11-06T01:12:12.373Z,4.29
2022-11-06T01:17:14.357Z,4.16
2022-11-06T01:22:16.107Z,4.09
2022-11-06T01:27:26.524Z,4.02
2022-11-06T01:32:28.614Z,3.97
2022-11-06T01:37:30.078Z,3.93
2022-11-06T01:42:31.506Z,3.91
2022-11-06T01:47:32.974Z,3.86
2022-11-06T01:52:35.562Z,3.88
2022-11-06T01:57:37.248Z,3.90
2022-11-06T02:02:39.501Z,3.89
2022-11-06T02:07:42.844Z,3.87
2022-11-06T02:13:03.236Z,3.81
2022-11-06T02:18:36.138Z,3.77
2022-11-06T02:23:58.273Z,3.71
2022-11-06T02:29:21.033Z,3.60
2022-11-06T02:34:26.300Z,3.50
2022-11-06T02:39:30.831Z,3.47
2022-11-06T02:44:36.412Z,3.40
2022-11-06T02:49:40.077Z,3.34
2022-11-06T02:54:49.022Z,3.25
2022-11-06T03:00:01.225Z,3.13
2022-11-06T03:05:12.860Z,3.03
2022-11-06T03:10:14.762Z,3.00
2022-11-06T03:16:01.359Z,2.98
2022-11-06T03:21:38.993Z,2.99
2022-11-06T03:26:45.724Z,3.03
2022-11-06T03:32:15.739Z,2.94
2022-11-06T03:37:23.785Z,2.78
2022-11-06T03:42:30.883Z,2.62
2022-11-06T03:47:38.129Z,2.54
2022-11-06T03:52:44.722Z,2.54
2022-11-06T03:57:52.494Z,2.48
2022-11-06T04:03:05.831Z,2.41
2022-11-06T04:08:28.196Z,2.37
2022-11-06T04:13:51.813Z,2.37
2022-11-06T04:18:53.283Z,2.35
2022-11-06T04:24:38.576Z,2.30
2022-11-06T04:30:08.912Z,2.20
2022-11-06T04:35:22.172Z,2.13
2022-11-06T04:40:53.973Z,2.04
2022-11-06T04:45:58.616Z,1.96
2022-11-06T04:51:04.864Z,1.98
2022-11-06T04:56:10.801Z,1.99
2022-11-06T05:01:12.329Z,1.99
2022-11-06T05:06:14.021Z,2.01
2022-11-06T05:11:15.532Z,2.03
2022-11-06T05:16:17.045Z,2.10
2022-11-06T05:21:37.208Z,2.11
2022-11-06T05:26:38.715Z,2.07
2022-11-06T05:31:40.397Z,2.10
2022-11-06T05:36:41.905Z,2.27
2022-11-06T05:41:43.394Z,2.52
2022-11-06T05:46:49.670Z,2.67
2022-11-06T05:51:51.638Z,2.68
2022-11-06T05:56:53.114Z,2.78
2022-11-06T06:01:54.934Z,2.79
2022-11-06T06:06:56.596Z,2.85
2022-11-06T06:11:58.117Z,2.95
2022-11-06T06:16:59.866Z,2.79
2022-11-06T06:22:01.441Z,2.69
2022-11-06T06:27:03.608Z,2.68
2022-11-06T06:32:05.401Z,2.62
2022-11-06T06:37:06.929Z,2.65
2022-11-06T06:42:08.581Z,2.78
2022-11-06T06:47:10.121Z,3.00
2022-11-06T06:52:12.278Z,3.21
2022-11-06T06:57:13.759Z,4.31
2022-11-06T07:02:15.301Z,5.21
2022-11-06T07:07:16.955Z,5.51
2022-11-06T07:12:18.460Z,6.23
2022-11-06T07:17:19.959Z,7.52
2022-11-06T07:22:29.562Z,8.77
2022-11-06T07:27:33.847Z,9.90
2022-11-06T07:32:35.415Z,11.12
2022-11-06T07:37:37.211Z,12.30
2022-11-06T07:42:43.258Z,12.87
2022-11-06T07:47:45.251Z,13.27
2022-11-06T07:52:46.693Z,13.44
2022-11-06T07:57:48.456Z,13.55
2022-11-06T08:02:53.959Z,14.47
2022-11-06T08:07:58.490Z,15.30
2022-11-06T08:13:00.911Z,15.70
2022-11-06T08:18:02.438Z,15.67
2022-11-06T08:23:05.986Z,15.04
2022-11-06T08:28:07.538Z,15.37
2022-11-06T08:33:09.231Z,14.34
2022-11-06T08:38:10.854Z,12.35
2022-11-06T08:43:12.757Z,10.86
2022-11-06T08:48:14.405Z,9.74
2022-11-06T08:53:16.296Z,9.24
2022-11-06T08:58:18.270Z,9.62
2022-11-06T09:03:19.719Z,10.32
2022-11-06T09:08:21.231Z,11.96
2022-11-06T09:13:22.753Z,13.35
2022-11-06T09:18:24.243Z,14.67
2022-11-06T09:23:25.890Z,14.71
2022-11-06T09:28:27.368Z,14.67
2022-11-06T09:33:28.825Z,15.61
2022-11-06T09:38:30.313Z,16.32
2022-11-06T09:44:09.327Z,17.11
2022-11-06T09:49:28.901Z,17.71
2022-11-06T09:54:38.996Z,18.01
2022-11-06T09:59:41.541Z,18.43
2022-11-06T10:04:55.773Z,18.63
2022-11-06T10:09:57.844Z,18.66
2022-11-06T10:15:23.053Z,18.34
2022-11-06T10:21:07.047Z,17.41
2022-11-06T10:26:15.995Z,15.95
2022-11-06T10:31:41.235Z,16.20
2022-11-06T10:36:50.288Z,17.04
2022-11-06T10:41:58.978Z,17.95
2022-11-06T10:47:23.055Z,18.93
2022-11-06T10:53:01.488Z,17.44
2022-11-06T10:58:06.544Z,16.17
2022-11-06T11:03:28.167Z,15.99
2022-11-06T11:08:35.503Z,16.81
2022-11-06T11:13:38.956Z,17.84
2022-11-06T11:18:40.432Z,19.23
2022-11-06T11:23:42.180Z,19.44
2022-11-06T11:28:49.682Z,18.81
2022-11-06T11:33:54.777Z,18.16
2022-11-06T11:38:56.632Z,16.47
2022-11-06T11:44:06.043Z,15.35
2022-11-06T11:49:26.370Z,14.52
2022-11-06T11:54:34.352Z,14.46
2022-11-06T11:59:46.359Z,14.88
2022-11-06T12:04:52.776Z,14.92
2022-11-06T12:09:54.589Z,15.07
2022-11-06T12:15:21.334Z,15.10
2022-11-06T12:20:57.985Z,14.74
2022-11-06T12:26:08.669Z,14.32
2022-11-06T12:31:24.324Z,14.36
2022-11-06T12:36:29.786Z,14.32
2022-11-06T12:41:45.419Z,14.27
2022-11-06T12:47:05.476Z,14.40
2022-11-06T12:52:32.456Z,14.50
2022-11-06T12:57:38.801Z,14.52
2022-11-06T13:02:58.482Z,14.46
2022-11-06T13:08:25.005Z,14.32
2022-11-06T13:13:54.681Z,14.26
2022-11-06T13:19:09.629Z,14.15
2022-11-06T13:24:18.437Z,14.05
2022-11-06T13:29:23.989Z,13.95
2022-11-06T13:34:30.535Z,13.68
2022-11-06T13:39:42.790Z,13.52
2022-11-06T13:44:44.447Z,13.44
2022-11-06T13:50:10.754Z,13.37
2022-11-06T13:55:53.443Z,13.27
2022-11-06T14:01:13.297Z,13.17
2022-11-06T14:06:21.820Z,12.90
2022-11-06T14:11:30.416Z,12.73
2022-11-06T14:16:34.092Z,12.61
2022-11-06T14:21:53.237Z,12.54
2022-11-06T14:26:54.933Z,12.49
2022-11-06T14:32:19.372Z,12.44
2022-11-06T14:37:30.847Z,12.33
2022-11-06T14:42:42.020Z,12.08
2022-11-06T14:47:46.183Z,11.93
2022-11-06T14:53:03.461Z,11.86
2022-11-06T14:58:24.495Z,11.68
2022-11-06T15:03:35.771Z,11.54
2022-11-06T15:08:46.543Z,11.41
2022-11-06T15:13:48.094Z,11.28
2022-11-06T15:18:51.373Z,11.08
2022-11-06T15:24:07.216Z,10.92
2022-11-06T15:29:17.505Z,10.77
2022-11-06T15:34:33.736Z,10.66
2022-11-06T15:40:00.959Z,10.61
2022-11-06T15:45:21.558Z,10.54
2022-11-06T15:50:31.162Z,10.53
2022-11-06T15:55:35.998Z,10.36
2022-11-06T16:00:41.423Z,10.34
2022-11-06T16:05:43.474Z,10.30
2022-11-06T16:10:48.522Z,10.21
2022-11-06T16:15:57.274Z,10.09
2022-11-06T16:21:18.894Z,10.07
2022-11-06T16:26:37.309Z,10.05
2022-11-06T16:31:40.087Z,10.09
2022-11-06T16:37:00.024Z,10.07
2022-11-06T16:42:16.712Z,10.07
2022-11-06T16:47:22.822Z,10.05
2022-11-06T16:52:34.454Z,10.02
2022-11-06T16:57:44.275Z,10.01
2022-11-06T17:02:49.254Z,10.00
2022-11-06T17:08:07.371Z,10.04
2022-11-06T17:13:25.095Z,10.05
2022-11-06T17:18:31.567Z,9.95
2022-11-06T17:23:33.882Z,9.92
2022-11-06T17:28:35.438Z,9.86
2022-11-06T17:33:37.016Z,9.85
2022-11-06T17:38:38.593Z,9.86
2022-11-06T17:43:43.065Z,9.78
2022-11-06T17:48:44.515Z,9.75
2022-11-06T17:53:46.023Z,9.66
2022-11-06T17:58:47.481Z,9.65
2022-11-06T18:03:49.040Z,9.69
2022-11-06T18:08:58.408Z,9.72
2022-11-06T18:14:00.079Z,9.81
2022-11-06T18:19:01.847Z,9.85
2022-11-06T18:24:03.973Z,9.89
2022-11-06T18:29:07.052Z,9.93
2022-11-06T18:34:18.445Z,9.89
2022-11-06T18:39:21.600Z,9.87
2022-11-06T18:44:26.347Z,9.87
2022-11-06T18:49:27.803Z,9.87
2022-11-06T18:54:29.883Z,9.86
2022-11-06T18:59:31.714Z,9.89
2022-11-06T19:04:33.244Z,9.90
2022-11-06T19:09:34.743Z,9.89
2022-11-06T19:14:36.227Z,9.98
2022-11-06T19:19:37.875Z,10.06
2022-11-06T19:24:39.409Z,10.14
2022-11-06T19:29:40.904Z,10.18
2022-11-06T19:34:42.519Z,10.25
2022-11-06T19:39:43.984Z,10.33
2022-11-06T19:44:45.439Z,10.40
2022-11-06T19:49:46.900Z,10.48
2022-11-06T19:54:48.381Z,10.56
2022-11-06T19:59:49.832Z,10.63
2022-11-06T20:04:51.333Z,10.71
2022-11-06T20:09:54.568Z,10.79
2022-11-06T20:14:56.064Z,10.87
2022-11-06T20:19:57.568Z,10.90
2022-11-06T20:24:59.081Z,10.92
2022-11-06T20:30:00.690Z,10.92
2022-11-06T20:35:03.324Z,10.91
2022-11-06T20:40:05.602Z,10.90
2022-11-06T20:45:07.965Z,10.89
2022-11-06T20:50:09.576Z,10.74
2022-11-06T20:55:11.063Z,10.67
2022-11-06T21:00:13.307Z,10.67
2022-11-06T21:05:15.093Z,10.64
2022-11-06T21:10:16.779Z,10.71
2022-11-06T21:15:18.241Z,10.79
2022-11-06T21:20:23.035Z,10.83
2022-11-06T21:25:24.793Z,10.86
2022-11-06T21:30:26.332Z,11.05
2022-11-06T21:35:27.954Z,11.25
2022-11-06T21:40:29.524Z,11.45
2022-11-06T21:45:31.047Z,11.70
2022-11-06T21:50:32.594Z,11.96
2022-11-06T21:55:53.903Z,12.02
2022-11-06T22:00:55.609Z,12.00
2022-11-06T22:06:04.875Z,11.92
2022-11-06T22:11:14.756Z,11.80
2022-11-06T22:16:19.196Z,11.69
2022-11-06T22:21:23.827Z,11.60
2022-11-06T22:26:29.158Z,11.50
2022-11-06T22:31:30.898Z,11.43
2022-11-06T22:36:32.522Z,11.33
2022-11-06T22:41:34.544Z,11.26
2022-11-06T22:46:36.407Z,11.21
2022-11-06T22:51:38.480Z,11.20
2022-11-06T22:56:40.027Z,11.18
2022-11-06T23:01:42.841Z,11.15
2022-11-06T23:06:45.380Z,11.07
2022-11-06T23:11:47.326Z,11.07
2022-11-06T23:16:57.672Z,11.12
2022-11-06T23:22:18.366Z,11.12
2022-11-06T23:27:20.690Z,11.12
2022-11-06T23:32:22.330Z,11.18
2022-11-06T23:37:24.619Z,11.26
2022-11-06T23:42:26.279Z,11.33
2022-11-06T23:47:28.148Z,11.40
2022-11-06T23:52:29.702Z,11.45
2022-11-06T23:57:31.200Z,11.51
